Time;durP1;ratioP1;P1;durP2;ratioP2;P2;SDS_P1;SDS_P2;PMS_P1;PMS_P2;Temp;Humidity;BMP_temperature;BMP_pressure;BME280_temperature;BME280_humidity;BME280_pressure;Samples;Min_cycle;Max_cycle;Signal;HPM_P1;HPM_P2
2021/05/26 00:00:35;;;;;;;;;;;;;;;13.39;79.30;95969.76;1791664;79;20199;-66
2021/05/26 00:03:03;;;;;;;;;;;;;;;13.38;79.35;95965.34;1791523;79;20195;-66
2021/05/26 00:05:30;;;;;;;;;;;;;;;13.35;79.26;95967.61;1791644;80;20540;-66
2021/05/26 00:07:57;;;;;;;;;;;;;;;13.30;79.20;95973.47;1791672;80;20151;-67
2021/05/26 00:10:24;;;;;;;;;;;;;;;13.26;78.54;95968.27;1791393;80;20159;-67
2021/05/26 00:12:50;;;;;;;;;;;;;;;13.24;78.55;95972.27;1791699;79;20210;-67
2021/05/26 00:15:17;;;;;;;;;;;;;;;13.20;77.98;95979.86;1791581;80;20508;-67
2021/05/26 00:17:43;;;;;;;;;;;;;;;13.12;77.90;95981.82;1791348;79;20135;-67
2021/05/26 00:20:10;;;;;;;;;;;;;;;12.99;78.28;95982.09;1791621;80;20139;-67
2021/05/26 00:22:37;;;;;;;;;;;;;;;12.92;78.31;95989.73;1791550;80;20167;-68
2021/05/26 00:25:04;;;;;;;;;;;;;;;12.88;78.40;95980.14;1791693;80;20127;-67
2021/05/26 00:27:31;;;;;;;;;;;;;;;12.86;78.59;95971.80;1791675;80;20499;-67
2021/05/26 00:29:57;;;;;;;;;;;;;;;12.77;79.05;95971.53;1791349;80;20182;-67
2021/05/26 00:32:23;;;;;;;;;;;;;;;12.74;78.71;95976.44;1791667;79;20479;-67
2021/05/26 00:34:50;;;;;;;;;;;;;;;12.65;79.32;95986.34;1791799;80;20147;-67
2021/05/26 00:37:16;;;;;;;;;;;;;;;12.53;79.75;95985.70;1791442;79;20127;-67
2021/05/26 00:39:43;;;;;;;;;;;;;;;12.49;79.58;95985.79;1791657;80;20163;-66
2021/05/26 00:42:10;;;;;;;;;;;;;;;12.42;79.41;95991.64;1791625;80;20528;-66
2021/05/26 00:44:36;;;;;;;;;;;;;;;12.34;79.99;95989.60;1791424;80;20131;-67
2021/05/26 00:47:03;;;;;;;;;;;;;;;12.27;80.00;95990.61;1791630;80;20618;-67
2021/05/26 00:49:30;;;;;;;;;;;;;;;12.11;80.33;95986.07;1791626;80;20492;-67
2021/05/26 00:51:56;;;;;;;;;;;;;;;12.05;80.31;95996.77;1791569;80;20163;-67
2021/05/26 00:54:23;;;;;;;;;;;;;;;12.04;80.41;96001.16;1791611;80;20124;-67
2021/05/26 00:56:50;;;;;;;;;;;;;;;12.04;80.92;96000.30;1791937;79;20218;-67
2021/05/26 00:59:16;;;;;;;;;;;;;;;12.08;81.64;95998.03;1809199;79;20134;-67
2021/05/26 01:01:43;;;;;;;;;;;;;;;12.13;80.97;95991.75;1782029;79;20498;-67
2021/05/26 01:04:09;;;;;;;;;;;;;;;12.15;80.53;95988.23;1809229;79;20159;-67
2021/05/26 01:06:37;;;;;;;;;;;;;;;12.17;80.58;95983.75;1809197;79;20194;-67
2021/05/26 01:09:04;;;;;;;;;;;;;;;12.17;80.45;96001.84;1809098;79;20150;-67
2021/05/26 01:11:30;;;;;;;;;;;;;;;12.21;80.79;96006.16;1809262;79;20217;-67
2021/05/26 01:13:57;;;;;;;;;;;;;;;12.22;81.19;96012.31;1809041;79;20139;-67
2021/05/26 01:16:24;;;;;;;;;;;;;;;12.20;80.57;96033.98;1809064;79;20151;-67
2021/05/26 01:18:51;;;;;;;;;;;;;;;12.13;80.41;96042.02;1808920;79;20222;-67
2021/05/26 01:21:19;;;;;;;;;;;;;;;12.09;80.70;96040.31;1809295;79;20170;-67
2021/05/26 01:23:50;;;;;;;;;;;;;;;12.12;81.51;96037.63;1809222;79;20134;-67
2021/05/26 01:26:21;;;;;;;;;;;;;;;12.10;81.36;96014.75;1800017;79;20220;-67
2021/05/26 01:28:48;;;;;;;;;;;;;;;12.08;81.04;96012.58;1809045;79;20146;-67
2021/05/26 01:31:16;;;;;;;;;;;;;;;12.08;80.84;96016.09;1808833;79;20257;-68
2021/05/26 01:33:42;;;;;;;;;;;;;;;12.04;80.89;96019.67;1809122;79;20233;-67
2021/05/26 01:36:11;;;;;;;;;;;;;;;12.07;80.54;96031.55;1803025;79;20206;-67
2021/05/26 01:38:38;;;;;;;;;;;;;;;12.06;80.77;96029.79;1809033;79;20143;-67
2021/05/26 01:41:04;;;;;;;;;;;;;;;12.08;80.65;96041.22;1808941;79;20546;-67
2021/05/26 01:43:34;;;;;;;;;;;;;;;12.04;80.54;96034.22;1808995;79;20206;-67
2021/05/26 01:46:01;;;;;;;;;;;;;;;11.99;79.90;96030.79;1808875;79;20507;-67
2021/05/26 01:48:29;;;;;;;;;;;;;;;11.89;79.94;96026.13;1808976;79;20131;-67
2021/05/26 01:50:57;;;;;;;;;;;;;;;11.79;80.09;96019.22;1809231;79;20203;-66
2021/05/26 01:53:26;;;;;;;;;;;;;;;11.83;79.59;96027.51;1809148;79;20162;-66
2021/05/26 01:55:54;;;;;;;;;;;;;;;11.83;80.11;96043.83;1808907;79;20149;-67
2021/05/26 01:58:20;;;;;;;;;;;;;;;11.72;79.77;96038.72;1809022;79;20126;-67
2021/05/26 02:00:48;;;;;;;;;;;;;;;11.68;80.29;96039.20;1808682;79;20170;-68
2021/05/26 02:03:15;;;;;;;;;;;;;;;11.63;80.29;96046.33;1809048;79;20491;-67
2021/05/26 02:05:43;;;;;;;;;;;;;;;11.57;80.35;96058.33;1809184;79;20135;-67
2021/05/26 02:08:09;;;;;;;;;;;;;;;11.61;80.82;96056.05;1808996;79;20209;-67
2021/05/26 02:13:21;;;;;;;;;;;;;;;11.60;80.56;96055.63;1809303;79;20455;-67
2021/05/26 02:15:49;;;;;;;;;;;;;;;11.60;80.14;96065.34;1808373;79;20518;-67
2021/05/26 02:18:17;;;;;;;;;;;;;;;11.55;80.30;96081.26;1809136;79;20182;-67
2021/05/26 02:20:43;;;;;;;;;;;;;;;11.54;79.88;96096.70;1809215;79;20162;-67
2021/05/26 02:23:11;;;;;;;;;;;;;;;11.51;79.87;96103.33;1809040;79;20222;-67
2021/05/26 02:25:41;;;;;;;;;;;;;;;11.52;79.55;96093.20;1809234;79;20166;-66
2021/05/26 02:28:07;;;;;;;;;;;;;;;11.47;79.64;96094.58;1809141;79;20147;-67
2021/05/26 02:30:34;;;;;;;;;;;;;;;11.50;79.30;96109.52;1808789;79;20158;-67
2021/05/26 02:33:00;;;;;;;;;;;;;;;11.47;79.95;96117.05;1809135;79;20491;-67
2021/05/26 02:35:29;;;;;;;;;;;;;;;11.42;80.44;96113.59;1809092;79;20238;-67
2021/05/26 02:37:55;;;;;;;;;;;;;;;11.42;80.96;96124.16;1809066;79;20158;-67
2021/05/26 02:40:22;;;;;;;;;;;;;;;11.43;79.90;96125.89;1809137;79;20139;-67
2021/05/26 02:42:48;;;;;;;;;;;;;;;11.45;79.82;96117.95;1809100;79;20170;-68
2021/05/26 02:45:16;;;;;;;;;;;;;;;11.48;79.44;96121.87;1808914;79;20182;-68
2021/05/26 02:47:43;;;;;;;;;;;;;;;11.52;79.07;96122.27;1809150;79;20156;-67
2021/05/26 02:50:16;;;;;;;;;;;;;;;11.53;78.86;96116.08;1809047;79;20182;-67
2021/05/26 02:52:40;;;;;;;;;;;;;;;11.56;78.97;96123.95;1781969;79;20507;-67
2021/05/26 02:55:09;;;;;;;;;;;;;;;11.56;79.02;96125.27;1809137;79;20159;-67
2021/05/26 02:57:36;;;;;;;;;;;;;;;11.55;77.99;96127.96;1779794;79;20154;-67
2021/05/26 03:00:23;;;;;;;;;;;;;;;11.51;78.08;96149.57;1791563;80;20214;-67
2021/05/26 03:03:08;;;;;;;;;;;;;;;11.52;78.29;96139.45;1765858;80;20138;-67
2021/05/26 03:05:35;;;;;;;;;;;;;;;11.54;78.55;96127.09;1791526;80;20183;-67
2021/05/26 03:08:02;;;;;;;;;;;;;;;11.57;78.29;96124.40;1791634;80;20179;-67
2021/05/26 03:10:30;;;;;;;;;;;;;;;11.65;78.22;96121.19;1791639;80;20162;-68
2021/05/26 03:12:59;;;;;;;;;;;;;;;11.76;78.57;96129.41;1790551;80;20167;-67
2021/05/26 03:15:27;;;;;;;;;;;;;;;11.80;77.87;96125.39;1791738;80;20155;-68
2021/05/26 03:17:54;;;;;;;;;;;;;;;11.83;78.14;96127.98;1791661;80;20168;-68
2021/05/26 03:20:21;;;;;;;;;;;;;;;11.87;78.51;96130.18;1791497;80;20167;-68
2021/05/26 03:23:05;;;;;;;;;;;;;;;11.80;78.69;96132.45;1791612;80;20159;-67
2021/05/26 03:25:50;;;;;;;;;;;;;;;11.77;77.91;96124.12;1791636;80;20208;-67
2021/05/26 03:28:18;;;;;;;;;;;;;;;11.76;78.06;96123.67;1791579;80;20179;-67
2021/05/26 03:30:46;;;;;;;;;;;;;;;11.72;78.18;96118.45;1791242;80;20147;-67
2021/05/26 03:33:14;;;;;;;;;;;;;;;11.66;78.33;96108.39;1791834;80;20242;-67
2021/05/26 03:35:42;;;;;;;;;;;;;;;11.60;78.44;96108.95;1791695;80;20207;-67
2021/05/26 03:38:09;;;;;;;;;;;;;;;11.55;77.88;96101.53;1791584;80;20518;-67
2021/05/26 03:40:38;;;;;;;;;;;;;;;11.53;78.59;96100.22;1789540;80;20182;-67
2021/05/26 03:43:06;;;;;;;;;;;;;;;11.53;77.22;96100.22;1791555;80;20500;-67
2021/05/26 03:45:39;;;;;;;;;;;;;;;11.51;77.12;96093.21;1791530;80;20483;-68
2021/05/26 03:48:08;;;;;;;;;;;;;;;11.48;76.51;96102.92;1791624;79;20143;-68
2021/05/26 03:50:34;;;;;;;;;;;;;;;11.38;77.22;96098.66;1791755;80;20174;-68
2021/05/26 03:53:00;;;;;;;;;;;;;;;11.30;76.91;96097.03;1791609;80;20488;-67
2021/05/26 03:55:28;;;;;;;;;;;;;;;11.20;75.39;96093.63;1791667;79;20471;-67
2021/05/26 03:57:57;;;;;;;;;;;;;;;11.15;75.22;96096.78;1789034;80;20166;-67
2021/05/26 04:00:24;;;;;;;;;;;;;;;11.05;75.54;96106.58;1798623;80;20150;-67
2021/05/26 04:02:52;;;;;;;;;;;;;;;10.98;76.04;96110.19;1796618;80;20142;-67
2021/05/26 04:05:19;;;;;;;;;;;;;;;10.93;76.54;96108.91;1798777;80;20175;-67
2021/05/26 04:07:45;;;;;;;;;;;;;;;10.87;76.33;96113.41;1798569;80;20504;-67
2021/05/26 04:10:13;;;;;;;;;;;;;;;10.80;76.60;96131.06;1798650;80;20151;-67
2021/05/26 04:12:40;;;;;;;;;;;;;;;10.68;77.38;96137.34;1798660;80;20162;-67
2021/05/26 04:15:13;;;;;;;;;;;;;;;10.58;77.11;96139.23;1795169;80;20487;-67
2021/05/26 04:17:41;;;;;;;;;;;;;;;10.52;78.37;96139.27;1792971;80;20159;-67
2021/05/26 04:20:10;;;;;;;;;;;;;;;10.45;78.99;96145.94;1796529;80;20202;-67
2021/05/26 04:22:37;;;;;;;;;;;;;;;10.45;78.81;96149.45;1798658;80;20166;-67
2021/05/26 04:25:06;;;;;;;;;;;;;;;10.45;80.97;96156.49;1798662;80;20147;-67
2021/05/26 04:27:33;;;;;;;;;;;;;;;10.53;80.73;96161.25;1798560;80;20489;-67
2021/05/26 04:30:01;;;;;;;;;;;;;;;10.70;80.67;96167.23;1798330;80;20162;-67
2021/05/26 04:32:27;;;;;;;;;;;;;;;10.84;80.16;96167.12;1798491;80;20147;-67
2021/05/26 04:34:54;;;;;;;;;;;;;;;10.95;79.90;96177.10;1798830;80;20166;-67
2021/05/26 04:37:20;;;;;;;;;;;;;;;11.12;79.96;96169.00;1798562;80;20162;-67
2021/05/26 04:39:47;;;;;;;;;;;;;;;11.29;79.18;96163.95;1798784;80;20512;-67
2021/05/26 04:42:14;;;;;;;;;;;;;;;11.39;78.53;96161.62;1798639;80;20487;-68
2021/05/26 04:44:40;;;;;;;;;;;;;;;11.53;78.05;96161.45;1798902;80;20494;-67
2021/05/26 04:47:06;;;;;;;;;;;;;;;11.61;76.56;96163.09;1798660;80;20178;-67
2021/05/26 04:49:33;;;;;;;;;;;;;;;11.68;76.72;96160.80;1798413;80;20193;-67
2021/05/26 04:51:59;;;;;;;;;;;;;;;11.75;76.07;96169.52;1799092;80;20166;-67
2021/05/26 04:54:26;;;;;;;;;;;;;;;11.81;75.96;96161.49;1798749;80;20134;-67
2021/05/26 04:56:52;;;;;;;;;;;;;;;11.85;75.14;96162.34;1798832;80;20142;-67
2021/05/26 04:59:19;;;;;;;;;;;;;;;11.87;74.71;96156.16;1794435;79;20327;-68
2021/05/26 05:01:45;;;;;;;;;;;;;;;11.92;74.08;96157.42;1791845;80;20135;-68
2021/05/26 05:04:12;;;;;;;;;;;;;;;11.94;73.81;96164.00;1791723;80;20159;-68
2021/05/26 05:06:38;;;;;;;;;;;;;;;11.97;74.33;96159.98;1791831;80;20219;-68
2021/05/26 05:09:07;;;;;;;;;;;;;;;12.06;74.52;96155.88;1791923;80;20527;-68
2021/05/26 05:11:33;;;;;;;;;;;;;;;12.19;74.48;96159.20;1791529;80;20582;-68
2021/05/26 05:13:59;;;;;;;;;;;;;;;12.26;74.03;96161.73;1791807;80;20162;-67
2021/05/26 05:16:27;;;;;;;;;;;;;;;12.34;73.95;96168.22;1791712;80;20262;-67
2021/05/26 05:18:54;;;;;;;;;;;;;;;12.41;73.59;96163.25;1791611;80;20167;-68
2021/05/26 05:21:21;;;;;;;;;;;;;;;12.46;73.19;96161.86;1761500;80;20131;-67
2021/05/26 05:23:47;;;;;;;;;;;;;;;12.47;71.59;96155.65;1801954;78;20224;-67
2021/05/26 05:26:13;;;;;;;;;;;;;;;12.52;72.53;96153.80;1799860;80;20142;-67
2021/05/26 05:28:40;;;;;;;;;;;;;;;12.63;73.25;96157.15;1800715;80;20491;-68
2021/05/26 05:31:06;;;;;;;;;;;;;;;12.76;72.78;96157.80;1828843;78;20223;-68
2021/05/26 05:33:32;;;;;;;;;;;;;;;12.88;72.74;96160.23;1836336;78;20429;-67
2021/05/26 05:35:59;;;;;;;;;;;;;;;12.95;71.50;96162.29;1836799;78;20184;-68
2021/05/26 05:38:25;;;;;;;;;;;;;;;13.03;71.50;96164.80;1836503;78;20120;-69
2021/05/26 05:40:52;;;;;;;;;;;;;;;13.07;70.77;96158.55;1836509;78;20148;-68
2021/05/26 05:43:18;;;;;;;;;;;;;;;13.16;71.71;96159.70;1805068;78;20499;-68
2021/05/26 05:45:44;;;;;;;;;;;;;;;13.27;71.21;96167.47;1796935;80;20170;-66
2021/05/26 05:48:11;;;;;;;;;;;;;;;13.30;69.62;96164.75;1796647;80;20479;-67
2021/05/26 05:50:38;;;;;;;;;;;;;;;13.30;67.83;96166.07;1796762;80;20547;-67
2021/05/26 05:53:06;;;;;;;;;;;;;;;13.35;68.32;96164.20;1796788;80;20123;-67
2021/05/26 05:55:33;;;;;;;;;;;;;;;13.41;68.24;96162.31;1796821;80;20163;-67
2021/05/26 05:58:04;;;;;;;;;;;;;;;13.30;66.06;96159.45;1796787;80;20518;-67
2021/05/26 06:00:29;;;;;;;;;;;;;;;13.26;67.95;96159.94;1801749;80;20143;-67
2021/05/26 06:02:56;;;;;;;;;;;;;;;13.38;68.83;96160.16;1773632;80;20167;-67
2021/05/26 06:05:22;;;;;;;;;;;;;;;13.47;68.99;96165.28;1802704;80;20155;-67
2021/05/26 06:07:49;;;;;;;;;;;;;;;13.60;68.94;96162.78;1802690;80;20531;-67
2021/05/26 06:10:16;;;;;;;;;;;;;;;13.77;68.93;96154.92;1802881;80;20162;-67
2021/05/26 06:12:42;;;;;;;;;;;;;;;13.87;67.74;96154.27;1802691;80;20151;-67
2021/05/26 06:15:09;;;;;;;;;;;;;;;13.98;68.11;96164.17;1802588;80;20499;-67
2021/05/26 06:17:36;;;;;;;;;;;;;;;14.05;68.30;96160.02;1802513;80;20170;-67
2021/05/26 06:20:03;;;;;;;;;;;;;;;14.13;68.23;96159.84;1818224;79;20164;-67
2021/05/26 06:22:29;;;;;;;;;;;;;;;14.15;66.69;96159.81;1820146;79;20172;-67
2021/05/26 06:24:56;;;;;;;;;;;;;;;14.22;67.34;96160.95;1820253;79;20149;-66
2021/05/26 06:27:23;;;;;;;;;;;;;;;14.23;66.67;96163.15;1820260;79;20161;-66
2021/05/26 06:29:49;;;;;;;;;;;;;;;14.30;65.99;96158.12;1820184;79;20501;-67
2021/05/26 06:32:15;;;;;;;;;;;;;;;14.31;65.76;96151.88;1820373;79;20172;-66
2021/05/26 06:34:42;;;;;;;;;;;;;;;14.33;65.74;96158.03;1820159;79;20461;-67
2021/05/26 06:37:08;;;;;;;;;;;;;;;14.39;64.92;96155.67;1820209;79;20149;-67
2021/05/26 06:39:35;;;;;;;;;;;;;;;14.46;65.58;96155.52;1820268;79;20121;-67
2021/05/26 06:42:01;;;;;;;;;;;;;;;14.54;62.50;96151.80;1819990;79;20497;-67
2021/05/26 06:44:28;;;;;;;;;;;;;;;14.52;62.21;96145.66;1820341;79;20169;-67
2021/05/26 06:46:54;;;;;;;;;;;;;;;14.59;63.23;96140.18;1820088;79;20137;-67
2021/05/26 06:49:21;;;;;;;;;;;;;;;14.63;61.14;96140.50;1820125;79;20145;-67
2021/05/26 06:51:47;;;;;;;;;;;;;;;14.71;62.24;96150.92;1820240;79;20137;-67
2021/05/26 06:54:13;;;;;;;;;;;;;;;14.81;61.91;96147.11;1820444;79;20137;-66
2021/05/26 06:56:39;;;;;;;;;;;;;;;14.97;62.03;96149.36;1820030;79;20516;-69
2021/05/26 06:59:05;;;;;;;;;;;;;;;15.07;62.14;96150.88;1818435;78;20157;-65
2021/05/26 07:01:32;;;;;;;;;;;;;;;15.20;61.59;96144.30;1814674;79;20172;-65
2021/05/26 07:03:58;;;;;;;;;;;;;;;15.23;57.39;96144.67;1814195;79;20153;-66
2021/05/26 07:06:24;;;;;;;;;;;;;;;15.25;58.38;96137.53;1814500;79;20146;-66
2021/05/26 07:08:50;;;;;;;;;;;;;;;15.31;57.84;96136.02;1814624;79;20157;-67
2021/05/26 07:11:17;;;;;;;;;;;;;;;15.34;55.90;96134.59;1814433;79;20470;-65
2021/05/26 07:13:43;;;;;;;;;;;;;;;15.38;56.06;96134.06;1814500;79;20161;-64
2021/05/26 07:16:09;;;;;;;;;;;;;;;15.40;55.24;96133.57;1814455;79;20153;-65
2021/05/26 07:18:36;;;;;;;;;;;;;;;15.46;56.25;96139.56;1811215;79;20170;-64
2021/05/26 07:21:02;;;;;;;;;;;;;;;15.54;56.31;96129.56;1803913;80;20142;-65
2021/05/26 07:23:29;;;;;;;;;;;;;;;15.61;56.13;96134.25;1804034;80;20467;-67
2021/05/26 07:25:55;;;;;;;;;;;;;;;15.72;57.41;96143.27;1803756;80;20484;-63
2021/05/26 07:28:21;;;;;;;;;;;;;;;15.73;52.72;96141.05;1803916;80;20486;-64
2021/05/26 07:30:48;;;;;;;;;;;;;;;15.74;53.53;96138.31;1803920;80;20131;-67
2021/05/26 07:33:14;;;;;;;;;;;;;;;15.86;54.95;96139.73;1803878;80;20484;-64
2021/05/26 07:35:40;;;;;;;;;;;;;;;15.89;54.29;96140.97;1804020;80;20142;-64
2021/05/26 07:38:06;;;;;;;;;;;;;;;15.97;55.02;96139.41;1804004;80;20163;-65
2021/05/26 07:40:33;;;;;;;;;;;;;;;16.04;52.04;96130.78;1804109;80;20214;-63
2021/05/26 07:42:59;;;;;;;;;;;;;;;16.08;52.76;96135.96;1803994;80;20503;-63
2021/05/26 07:45:26;;;;;;;;;;;;;;;16.07;50.80;96134.20;1803664;80;20151;-62
2021/05/26 07:47:52;;;;;;;;;;;;;;;16.12;52.79;96130.93;1803873;80;20226;-64
2021/05/26 07:50:19;;;;;;;;;;;;;;;16.21;51.23;96133.78;1804003;80;20508;-64
2021/05/26 07:52:46;;;;;;;;;;;;;;;16.29;52.18;96135.73;1804001;80;20179;-64
2021/05/26 07:55:13;;;;;;;;;;;;;;;16.47;53.48;96137.37;1803954;80;20150;-64
2021/05/26 07:57:40;;;;;;;;;;;;;;;16.58;52.52;96134.78;1803950;80;20155;-65
2021/05/26 08:00:08;;;;;;;;;;;;;;;16.64;52.50;96133.69;1803943;79;20159;-62
2021/05/26 08:02:40;;;;;;;;;;;;;;;16.62;51.08;96135.06;1804012;80;20225;-64
2021/05/26 08:05:07;;;;;;;;;;;;;;;16.70;51.77;96130.80;1803950;80;20452;-63
2021/05/26 08:07:33;;;;;;;;;;;;;;;16.80;52.96;96130.93;1803842;80;20210;-67
2021/05/26 08:09:59;;;;;;;;;;;;;;;16.81;49.01;96128.70;1804104;80;20519;-64
2021/05/26 08:12:26;;;;;;;;;;;;;;;16.90;51.13;96126.16;1804272;80;20162;-65
2021/05/26 08:14:52;;;;;;;;;;;;;;;17.03;50.40;96121.27;1804103;80;20158;-64
2021/05/26 08:17:18;;;;;;;;;;;;;;;17.04;47.41;96124.36;1804033;80;20158;-64
2021/05/26 08:19:44;;;;;;;;;;;;;;;17.16;49.53;96125.69;1825934;78;20212;-66
2021/05/26 08:22:10;;;;;;;;;;;;;;;17.37;49.99;96128.06;1833365;78;20497;-65
2021/05/26 08:24:36;;;;;;;;;;;;;;;17.20;45.85;96124.66;1833176;78;20224;-66
2021/05/26 08:27:02;;;;;;;;;;;;;;;17.09;43.57;96121.92;1833153;78;20120;-65
2021/05/26 08:29:32;;;;;;;;;;;;;;;17.17;47.16;96116.78;1833371;78;20152;-65
2021/05/26 08:31:58;;;;;;;;;;;;;;;17.22;48.72;96114.82;1833118;78;20160;-65
2021/05/26 08:34:25;;;;;;;;;;;;;;;17.29;48.67;96115.88;1833037;78;20481;-65
2021/05/26 08:36:51;;;;;;;;;;;;;;;17.47;48.45;96113.45;1833379;78;20164;-66
2021/05/26 08:39:17;;;;;;;;;;;;;;;17.59;47.57;96117.44;1833359;78;20149;-68
2021/05/26 08:41:45;;;;;;;;;;;;;;;17.66;48.92;96113.14;1833389;78;20156;-65
2021/05/26 08:44:14;;;;;;;;;;;;;;;17.76;46.97;96116.80;1833253;78;20180;-70
2021/05/26 08:46:41;;;;;;;;;;;;;;;17.75;45.46;96113.27;1833303;78;20203;-67
2021/05/26 08:49:10;;;;;;;;;;;;;;;17.79;48.74;96114.01;1832701;78;20128;-66
2021/05/26 08:51:36;;;;;;;;;;;;;;;18.02;50.01;96112.70;1833346;78;20469;-64
2021/05/26 08:54:03;;;;;;;;;;;;;;;18.16;48.92;96112.13;1833158;78;20124;-66
2021/05/26 08:56:30;;;;;;;;;;;;;;;18.31;49.27;96112.84;1833264;78;20160;-64
2021/05/26 08:58:56;;;;;;;;;;;;;;;18.45;48.35;96110.95;1833277;78;20175;-65
2021/05/26 09:01:22;;;;;;;;;;;;;;;18.32;46.13;96108.36;1836899;78;20501;-64
2021/05/26 09:03:52;;;;;;;;;;;;;;;18.37;48.11;96107.27;1836251;78;20144;-66
2021/05/26 09:06:17;;;;;;;;;;;;;;;18.58;48.35;96101.48;1836442;78;20208;-65
2021/05/26 09:08:53;;;;;;;;;;;;;;;18.78;52.42;96108.69;1836415;78;20160;-66
2021/05/26 09:11:32;;;;;;;;;;;;;;;19.03;47.77;96107.64;1836576;78;20172;-66
2021/05/26 09:14:10;;;;;;;;;;;;;;;18.94;46.07;96108.03;1836673;78;20453;-66
2021/05/26 09:16:36;;;;;;;;;;;;;;;18.75;45.90;96098.58;1836443;78;20148;-66
2021/05/26 09:19:07;;;;;;;;;;;;;;;19.01;50.95;96102.82;1795023;78;20173;-66
2021/05/26 09:21:45;;;;;;;;;;;;;;;19.24;47.95;96105.81;1747279;82;20506;-66
2021/05/26 09:24:23;;;;;;;;;;;;;;;19.21;45.67;96102.80;1747299;82;20175;-66
2021/05/26 09:26:51;;;;;;;;;;;;;;;19.25;47.15;96099.52;1747277;82;20158;-66
2021/05/26 09:29:23;;;;;;;;;;;;;;;19.30;50.03;96101.52;1747338;82;20197;-65
2021/05/26 09:31:50;;;;;;;;;;;;;;;19.39;48.19;96095.75;1745276;82;20284;-65
2021/05/26 09:34:21;;;;;;;;;;;;;;;19.34;47.49;96090.22;1747213;82;20141;-65
2021/05/26 09:36:48;;;;;;;;;;;;;;;19.62;47.08;96086.66;1745688;82;20575;-65
2021/05/26 09:39:14;;;;;;;;;;;;;;;19.89;48.57;96079.66;1728836;82;20498;-66
2021/05/26 09:41:40;;;;;;;;;;;;;;;20.08;47.40;96080.52;1747350;81;20508;-66
2021/05/26 09:44:11;;;;;;;;;;;;;;;20.24;48.07;96087.33;1747354;82;20217;-66
2021/05/26 09:46:39;;;;;;;;;;;;;;;20.18;45.40;96086.28;1747271;82;20181;-66
2021/05/26 09:49:19;;;;;;;;;;;;;;;19.73;44.16;96078.19;1747305;81;20470;-66
2021/05/26 09:51:51;;;;;;;;;;;;;;;19.57;49.35;96075.78;1747144;82;20509;-66
2021/05/26 09:54:21;;;;;;;;;;;;;;;19.91;49.38;96070.20;1747190;82;20184;-66
2021/05/26 09:56:49;;;;;;;;;;;;;;;20.23;52.24;96076.67;1746221;82;20130;-66
2021/05/26 09:59:16;;;;;;;;;;;;;;;20.49;46.89;96072.25;1748399;80;20157;-66
2021/05/26 10:01:42;;;;;;;;;;;;;;;20.83;47.10;96074.58;1796917;80;20483;-66
2021/05/26 10:04:09;;;;;;;;;;;;;;;20.47;43.02;96070.11;1796676;80;20143;-65
2021/05/26 10:06:41;;;;;;;;;;;;;;;20.25;45.94;96071.64;1796580;80;20159;-65
2021/05/26 10:09:25;;;;;;;;;;;;;;;20.20;47.68;96067.45;1796776;80;20483;-65
2021/05/26 10:12:10;;;;;;;;;;;;;;;20.48;43.39;96057.09;1795999;80;20455;-66
2021/05/26 10:14:37;;;;;;;;;;;;;;;20.86;43.34;96059.66;1797089;80;20147;-66
2021/05/26 10:17:06;;;;;;;;;;;;;;;20.82;43.20;96054.56;1796739;80;20178;-66
2021/05/26 10:19:32;;;;;;;;;;;;;;;20.69;44.17;96052.98;1808143;79;20486;-66
2021/05/26 10:21:58;;;;;;;;;;;;;;;20.66;44.76;96052.67;1814483;79;20154;-66
2021/05/26 10:24:25;;;;;;;;;;;;;;;20.74;44.31;96053.14;1814648;79;20168;-66
2021/05/26 10:26:55;;;;;;;;;;;;;;;21.05;44.84;96049.33;1814506;79;20157;-66
2021/05/26 10:29:33;;;;;;;;;;;;;;;21.23;45.74;96048.34;1814457;79;20510;-66
2021/05/26 10:32:09;;;;;;;;;;;;;;;21.29;43.92;96046.69;1814572;79;20149;-66
2021/05/26 10:34:51;;;;;;;;;;;;;;;21.56;45.88;96051.05;1805122;79;20485;-65
2021/05/26 10:37:30;;;;;;;;;;;;;;;21.51;47.49;96045.54;1814721;79;20189;-65
2021/05/26 10:39:56;;;;;;;;;;;;;;;21.96;46.47;96030.02;1814481;79;20142;-65
2021/05/26 10:42:28;;;;;;;;;;;;;;;22.23;44.21;96034.33;1814394;79;20146;-66
2021/05/26 10:45:06;;;;;;;;;;;;;;;22.58;41.96;96026.48;1814689;79;20149;-66
2021/05/26 10:47:41;;;;;;;;;;;;;;;22.75;41.32;96029.52;1814380;79;20154;-66
2021/05/26 10:50:17;;;;;;;;;;;;;;;23.00;41.74;96021.73;1814482;79;20485;-66
2021/05/26 10:52:59;;;;;;;;;;;;;;;22.82;40.55;96032.23;1814788;79;20169;-66
2021/05/26 10:55:46;;;;;;;;;;;;;;;22.30;41.16;96028.59;1814370;79;20145;-66
2021/05/26 10:58:17;;;;;;;;;;;;;;;22.01;42.07;96031.11;1814548;79;20141;-66
2021/05/26 11:00:55;;;;;;;;;;;;;;;21.85;44.46;96030.23;1814450;79;20168;-66
2021/05/26 11:03:28;;;;;;;;;;;;;;;21.47;44.00;96023.37;1814340;79;20149;-67
2021/05/26 11:06:10;;;;;;;;;;;;;;;21.04;44.15;96021.64;1814415;79;20482;-68
2021/05/26 11:08:51;;;;;;;;;;;;;;;20.64;44.50;96018.36;1814577;79;20137;-67
2021/05/26 11:11:39;;;;;;;;;;;;;;;20.60;46.39;96020.79;1814641;79;20146;-67
2021/05/26 11:14:14;;;;;;;;;;;;;;;20.19;45.21;96022.87;1811278;79;20153;-67
2021/05/26 11:16:47;;;;;;;;;;;;;;;19.76;44.75;96017.80;1814449;79;20165;-67
2021/05/26 11:19:17;;;;;;;;;;;;;;;19.86;48.46;96020.90;1824531;78;20157;-67
2021/05/26 11:22:01;;;;;;;;;;;;;;;19.93;45.40;96012.94;1801145;78;20140;-65
2021/05/26 11:24:30;;;;;;;;;;;;;;;19.85;45.63;96015.98;1833090;78;20442;-65
2021/05/26 11:26:56;;;;;;;;;;;;;;;19.72;49.93;96012.66;1833243;78;20121;-65
2021/05/26 11:29:32;;;;;;;;;;;;;;;19.63;48.25;96011.23;1833067;78;20530;-65
2021/05/26 11:32:15;;;;;;;;;;;;;;;19.58;49.05;96014.16;1833376;78;20481;-65
2021/05/26 11:34:44;;;;;;;;;;;;;;;19.44;49.71;96009.92;1833155;78;20168;-65
2021/05/26 11:37:12;;;;;;;;;;;;;;;19.56;48.07;96000.45;1833030;78;20195;-67
2021/05/26 11:39:38;;;;;;;;;;;;;;;19.72;49.70;95996.11;1833069;78;20140;-67
2021/05/26 11:42:10;;;;;;;;;;;;;;;20.15;49.58;95991.32;1833208;78;20156;-67
2021/05/26 11:44:38;;;;;;;;;;;;;;;20.39;49.62;95987.89;1833135;78;20143;-67
2021/05/26 11:47:05;;;;;;;;;;;;;;;20.73;46.66;95984.34;1833204;78;20501;-65
2021/05/26 11:49:35;;;;;;;;;;;;;;;20.89;46.92;95987.55;1833080;78;20208;-66
2021/05/26 11:52:04;;;;;;;;;;;;;;;21.01;45.12;95983.36;1832867;78;20164;-66
2021/05/26 11:54:31;;;;;;;;;;;;;;;21.13;45.11;95978.67;1832436;78;20176;-65
2021/05/26 11:57:00;;;;;;;;;;;;;;;21.04;42.29;95976.48;1833087;78;20140;-65
2021/05/26 11:59:28;;;;;;;;;;;;;;;20.84;42.72;95971.73;1832499;78;20143;-65
2021/05/26 12:01:55;;;;;;;;;;;;;;;20.87;45.96;95970.70;1833152;78;20148;-65
2021/05/26 12:04:21;;;;;;;;;;;;;;;20.97;44.67;95975.96;1833088;78;20183;-66
2021/05/26 12:06:48;;;;;;;;;;;;;;;21.01;42.47;95971.28;1833206;78;20156;-65
2021/05/26 12:09:30;;;;;;;;;;;;;;;20.93;42.31;95962.31;1833268;78;20168;-66
2021/05/26 12:11:57;;;;;;;;;;;;;;;21.06;43.60;95960.69;1832775;78;20513;-66
2021/05/26 12:14:28;;;;;;;;;;;;;;;21.85;41.96;95958.59;1801192;78;20216;-66
2021/05/26 12:16:55;;;;;;;;;;;;;;;22.77;41.04;95951.80;1833234;78;20145;-66
2021/05/26 12:19:29;;;;;;;;;;;;;;;23.66;39.87;95940.86;1815435;78;20503;-66
2021/05/26 12:22:14;;;;;;;;;;;;;;;24.31;43.88;95930.71;1804032;80;20142;-66
2021/05/26 12:24:58;;;;;;;;;;;;;;;25.11;36.76;95928.41;1803998;80;20170;-67
2021/05/26 12:27:42;;;;;;;;;;;;;;;25.25;35.28;95921.58;1804175;80;20154;-67
2021/05/26 12:30:25;;;;;;;;;;;;;;;25.97;34.42;95916.80;1803233;80;20546;-66
2021/05/26 12:32:58;;;;;;;;;;;;;;;26.11;31.84;95910.73;1803921;80;20166;-66
2021/05/26 12:35:27;;;;;;;;;;;;;;;26.72;33.09;95905.69;1803609;80;20475;-66
2021/05/26 12:37:55;;;;;;;;;;;;;;;27.44;31.60;95898.61;1803556;80;20140;-66
2021/05/26 12:40:30;;;;;;;;;;;;;;;27.55;30.52;95889.62;1803798;80;20230;-66
2021/05/26 12:42:59;;;;;;;;;;;;;;;26.94;30.42;95892.19;1804098;80;20127;-66
2021/05/26 12:45:30;;;;;;;;;;;;;;;26.14;31.78;95893.91;1803509;80;20169;-66
2021/05/26 12:48:00;;;;;;;;;;;;;;;25.36;33.77;95900.04;1804015;80;20154;-67
2021/05/26 12:50:28;;;;;;;;;;;;;;;24.61;34.98;95899.45;1787078;80;20531;-66
2021/05/26 12:53:12;;;;;;;;;;;;;;;24.17;37.00;95900.66;1804074;80;20154;-66
2021/05/26 12:55:38;;;;;;;;;;;;;;;23.63;39.18;95907.36;1803946;80;20151;-66
2021/05/26 12:58:09;;;;;;;;;;;;;;;23.06;38.83;95898.05;1804065;80;20237;-65